Time;durP1;ratioP1;P1;durP2;ratioP2;P2;SDS_P1;SDS_P2;PMS_P1;PMS_P2;Temp;Humidity;BMP_temperature;BMP_pressure;BME280_temperature;BME280_humidity;BME280_pressure;Samples;Min_cycle;Max_cycle;Signal;HPM_P1;HPM_P2
2024/02/03 00:01:14;;;;;;;5.67;3.23;;;7.00;98.00;;;;;;4995921;28;20481;-67
2024/02/03 00:03:42;;;;;;;5.50;2.80;;;6.90;98.00;;;;;;4995743;28;20462;-68
2024/02/03 00:06:09;;;;;;;5.00;2.70;;;6.70;98.00;;;;;;4995300;28;20471;-67
2024/02/03 00:08:36;;;;;;;5.20;2.77;;;6.70;98.00;;;;;;4994546;28;20478;-67
2024/02/03 00:11:10;;;;;;;5.73;3.40;;;6.60;98.00;;;;;;4995599;28;20496;-67
2024/02/03 00:13:38;;;;;;;4.30;2.53;;;6.60;98.00;;;;;;4995492;28;20470;-67
2024/02/03 00:16:07;;;;;;;4.30;2.37;;;6.60;98.00;;;;;;4995555;28;20490;-67
2024/02/03 00:18:35;;;;;;;5.07;2.87;;;6.50;98.00;;;;;;4994945;28;20461;-67
2024/02/03 00:21:04;;;;;;;8.40;3.23;;;6.50;98.00;;;;;;4995315;28;20466;-67
2024/02/03 00:23:31;;;;;;;5.33;3.10;;;6.50;98.00;;;;;;4994664;28;21003;-67
2024/02/03 00:25:58;;;;;;;4.40;2.63;;;6.40;98.00;;;;;;4995002;28;20463;-67
2024/02/03 00:28:27;;;;;;;4.93;2.80;;;6.40;98.00;;;;;;4994871;28;20467;-67
2024/02/03 00:30:54;;;;;;;4.20;2.53;;;6.30;98.00;;;;;;4995249;28;20988;-67
2024/02/03 00:33:21;;;;;;;4.63;2.77;;;6.30;98.00;;;;;;4995033;28;20460;-67
2024/02/03 00:35:48;;;;;;;5.67;2.70;;;6.40;98.00;;;;;;4995100;28;20496;-67
2024/02/03 00:38:18;;;;;;;4.50;2.87;;;6.20;98.00;;;;;;4994659;28;20492;-67
2024/02/03 00:40:46;;;;;;;4.53;2.73;;;6.00;98.00;;;;;;4994668;28;20540;-67
2024/02/03 00:43:15;;;;;;;3.80;2.60;;;6.00;98.00;;;;;;4994688;28;20463;-67
2024/02/03 00:45:43;;;;;;;8.13;2.70;;;5.90;98.00;;;;;;4994931;28;20449;-67
2024/02/03 00:48:11;;;;;;;5.00;2.73;;;5.90;98.00;;;;;;4994901;28;20563;-67
2024/02/03 00:50:38;;;;;;;4.10;2.50;;;5.90;98.00;;;;;;4994900;28;20466;-66
2024/02/03 00:53:05;;;;;;;3.60;2.20;;;5.90;98.00;;;;;;4993307;28;20460;-68
2024/02/03 00:55:33;;;;;;;4.87;2.20;;;5.80;98.00;;;;;;4994525;28;20457;-68
2024/02/03 00:58:00;;;;;;;3.60;2.33;;;5.80;98.00;;;;;;4994357;28;20452;-67
2024/02/03 01:00:27;;;;;;;3.77;2.40;;;5.80;98.00;;;;;;4994566;28;20453;-67
2024/02/03 01:02:56;;;;;;;3.80;2.33;;;5.70;98.00;;;;;;4993213;28;20454;-67
2024/02/03 01:05:24;;;;;;;4.90;2.77;;;5.60;98.00;;;;;;4994312;28;20475;-67
2024/02/03 01:07:51;;;;;;;2.40;1.87;;;5.50;98.00;;;;;;4994343;28;20457;-68
2024/02/03 01:10:20;;;;;;;3.63;2.37;;;5.50;98.00;;;;;;4993825;28;20460;-68
2024/02/03 01:12:47;;;;;;;4.50;2.37;;;5.50;98.00;;;;;;4994365;28;20462;-67
2024/02/03 01:15:14;;;;;;;4.10;2.40;;;5.50;98.00;;;;;;4994618;28;20459;-67
2024/02/03 01:17:42;;;;;;;3.33;2.20;;;5.40;98.00;;;;;;4994645;28;20789;-67
2024/02/03 01:20:12;;;;;;;4.70;2.23;;;5.40;98.00;;;;;;4994966;28;20464;-67
2024/02/03 01:22:39;;;;;;;3.40;1.97;;;5.30;98.00;;;;;;4994548;28;20944;-67
2024/02/03 01:25:09;;;;;;;4.43;2.20;;;5.30;98.00;;;;;;4994567;28;20452;-67
2024/02/03 01:27:36;;;;;;;3.00;2.00;;;5.30;98.00;;;;;;4994179;28;20454;-68
2024/02/03 01:30:04;;;;;;;4.53;2.60;;;5.40;98.00;;;;;;4994433;28;20458;-67
2024/02/03 01:32:32;;;;;;;4.37;2.20;;;5.40;98.00;;;;;;4994116;28;20469;-67
2024/02/03 01:35:00;;;;;;;7.80;2.30;;;5.30;98.00;;;;;;4994031;28;20470;-67
2024/02/03 01:37:28;;;;;;;2.30;2.00;;;5.30;98.00;;;;;;4992525;28;20492;-67
2024/02/03 01:39:59;;;;;;;5.57;2.40;;;5.20;98.00;;;;;;4994228;28;20466;-67
2024/02/03 01:42:25;;;;;;;4.37;2.20;;;5.20;98.00;;;;;;4993749;28;20456;-67
2024/02/03 01:44:53;;;;;;;5.70;2.53;;;5.20;98.00;;;;;;4993940;28;20655;-68
2024/02/03 01:47:20;;;;;;;3.87;2.20;;;5.10;98.00;;;;;;4993743;28;20459;-67
2024/02/03 01:49:49;;;;;;;4.13;2.20;;;5.10;98.00;;;;;;4993987;28;20452;-67
2024/02/03 01:52:17;;;;;;;4.10;2.40;;;5.20;98.00;;;;;;4993747;28;20478;-67
2024/02/03 01:54:47;;;;;;;3.20;2.37;;;5.20;98.00;;;;;;4993793;28;20576;-67
2024/02/03 01:57:16;;;;;;;3.10;2.07;;;5.20;98.00;;;;;;4993237;28;20574;-67
2024/02/03 01:59:44;;;;;;;8.50;2.70;;;5.20;98.00;;;;;;4992756;28;20936;-68
2024/02/03 02:02:11;;;;;;;3.33;2.10;;;5.20;98.00;;;;;;4993322;28;20453;-67
2024/02/03 02:04:38;;;;;;;2.57;1.97;;;5.20;98.00;;;;;;4993108;28;20455;-67
2024/02/03 02:07:05;;;;;;;3.73;2.30;;;5.10;98.00;;;;;;4993518;28;20455;-67
2024/02/03 02:09:32;;;;;;;4.13;2.27;;;5.00;98.00;;;;;;4993197;28;20486;-67
2024/02/03 02:12:01;;;;;;;4.47;2.07;;;5.00;98.00;;;;;;4993505;28;20459;-67
2024/02/03 02:14:28;;;;;;;2.83;2.00;;;4.90;98.00;;;;;;4994146;28;20498;-67
2024/02/03 02:16:57;;;;;;;4.87;2.40;;;5.00;98.00;;;;;;4992880;28;20578;-67
2024/02/03 02:19:24;;;;;;;3.13;2.07;;;5.00;98.00;;;;;;4993859;28;20501;-67
2024/02/03 02:21:53;;;;;;;8.17;3.97;;;4.90;98.00;;;;;;4993319;28;20448;-67
2024/02/03 02:24:20;;;;;;;5.33;3.10;;;4.90;98.00;;;;;;4993094;28;20450;-67
2024/02/03 02:26:47;;;;;;;4.90;2.80;;;4.90;98.00;;;;;;4991932;28;20466;-67
2024/02/03 02:29:15;;;;;;;4.10;2.20;;;4.90;98.00;;;;;;4992952;28;20878;-67
2024/02/03 02:31:42;;;;;;;3.20;2.20;;;4.90;98.00;;;;;;4992951;28;20461;-67
2024/02/03 02:34:09;;;;;;;4.27;2.30;;;4.90;98.00;;;;;;4992763;28;20873;-67
2024/02/03 02:36:36;;;;;;;2.97;2.13;;;4.80;98.00;;;;;;4992855;28;20495;-67
2024/02/03 02:39:06;;;;;;;3.20;2.10;;;4.70;98.00;;;;;;4992390;28;20450;-67
2024/02/03 02:41:34;;;;;;;3.30;2.00;;;4.50;98.00;;;;;;4992282;28;20458;-67
2024/02/03 02:44:01;;;;;;;3.63;2.17;;;4.40;98.00;;;;;;4992725;28;20456;-67
2024/02/03 02:46:28;;;;;;;5.17;2.20;;;4.50;98.00;;;;;;4992335;28;20451;-68
2024/02/03 02:48:56;;;;;;;3.83;2.13;;;4.40;98.00;;;;;;4992273;28;20480;-66
2024/02/03 02:51:23;;;;;;;4.10;2.10;;;4.50;98.00;;;;;;4992418;28;20457;-67
2024/02/03 02:53:51;;;;;;;3.30;2.13;;;4.50;98.00;;;;;;4992053;28;20455;-67
2024/02/03 02:56:19;;;;;;;4.83;1.90;;;4.50;98.00;;;;;;4991321;28;20463;-67
2024/02/03 02:58:47;;;;;;;4.10;1.97;;;4.50;98.00;;;;;;4991989;28;20864;-68
2024/02/03 03:01:16;;;;;;;3.03;2.00;;;4.50;98.00;;;;;;4991598;28;20482;-67
2024/02/03 03:03:43;;;;;;;3.50;2.00;;;4.50;98.00;;;;;;4992345;28;20453;-66
2024/02/03 03:06:11;;;;;;;3.03;2.03;;;4.30;98.00;;;;;;4992121;28;20467;-67
2024/02/03 03:08:38;;;;;;;2.67;1.87;;;4.30;98.00;;;;;;4992159;28;20536;-67
2024/02/03 03:11:05;;;;;;;3.00;2.10;;;4.20;98.00;;;;;;4992357;28;20981;-67
2024/02/03 03:13:34;;;;;;;2.10;1.77;;;4.00;98.00;;;;;;4992133;28;20826;-67
2024/02/03 03:16:01;;;;;;;2.43;1.80;;;4.00;98.00;;;;;;4991934;28;20459;-67
2024/02/03 03:18:28;;;;;;;3.23;1.90;;;4.10;98.00;;;;;;4991604;28;20534;-67
2024/02/03 03:20:55;;;;;;;2.67;2.10;;;4.10;98.00;;;;;;4991911;28;20955;-67
2024/02/03 03:23:22;;;;;;;2.93;1.93;;;4.10;98.00;;;;;;4992019;28;20454;-67
2024/02/03 03:25:50;;;;;;;3.87;2.03;;;4.10;98.00;;;;;;4991840;28;20445;-67
2024/02/03 03:28:17;;;;;;;3.00;2.10;;;4.10;98.00;;;;;;4990920;28;20493;-67
2024/02/03 03:30:45;;;;;;;3.47;2.10;;;4.20;98.00;;;;;;4991749;28;20978;-68
2024/02/03 03:33:13;;;;;;;2.63;1.93;;;4.00;98.00;;;;;;4990351;28;20453;-66
2024/02/03 03:35:40;;;;;;;5.60;2.40;;;4.00;98.00;;;;;;4992011;28;20463;-67
2024/02/03 03:38:07;;;;;;;4.57;2.20;;;4.00;98.00;;;;;;4991852;28;20494;-67
2024/02/03 03:40:34;;;;;;;4.10;2.20;;;4.10;98.00;;;;;;4992136;28;20453;-67
2024/02/03 03:43:01;;;;;;;4.77;2.50;;;4.10;98.00;;;;;;4991848;28;20466;-67
2024/02/03 03:45:28;;;;;;;4.03;2.43;;;4.00;98.00;;;;;;4991990;28;20449;-67
2024/02/03 03:47:57;;;;;;;4.33;2.23;;;4.00;98.00;;;;;;4972285;28;20457;-67
2024/02/03 03:50:24;;;;;;;4.80;2.40;;;4.00;98.00;;;;;;4972276;28;20848;-66
2024/02/03 03:52:51;;;;;;;5.27;2.70;;;4.10;98.00;;;;;;4972353;28;20453;-67
2024/02/03 03:55:18;;;;;;;5.77;2.77;;;4.10;98.00;;;;;;4972427;28;20457;-67
2024/02/03 03:57:46;;;;;;;3.67;2.40;;;4.10;98.00;;;;;;4972299;28;20816;-67
2024/02/03 04:00:14;;;;;;;3.10;2.10;;;4.00;98.00;;;;;;4972419;28;20470;-67
2024/02/03 04:02:41;;;;;;;3.07;2.00;;;4.00;98.00;;;;;;4972211;28;20820;-66
2024/02/03 04:05:10;;;;;;;3.17;2.10;;;3.90;98.00;;;;;;4972000;28;20466;-67
2024/02/03 04:07:37;;;;;;;3.63;2.10;;;3.80;98.00;;;;;;4972336;28;20884;-67
2024/02/03 04:10:05;;;;;;;4.50;2.60;;;3.80;98.00;;;;;;4972153;28;20470;-67
2024/02/03 04:12:32;;;;;;;3.27;2.43;;;3.80;98.00;;;;;;4971981;28;20456;-67
2024/02/03 04:15:01;;;;;;;4.77;2.60;;;3.80;98.00;;;;;;4972139;28;20482;-67
2024/02/03 04:17:28;;;;;;;3.30;2.33;;;3.60;98.00;;;;;;4971797;28;20503;-67
2024/02/03 04:19:56;;;;;;;5.30;2.33;;;3.60;98.00;;;;;;4972325;28;20459;-67
2024/02/03 04:22:24;;;;;;;4.67;2.33;;;3.60;98.00;;;;;;4971376;28;20458;-67
2024/02/03 04:24:53;;;;;;;2.63;1.97;;;3.30;98.00;;;;;;4972041;28;20489;-67
2024/02/03 04:27:20;;;;;;;3.10;2.00;;;3.30;98.00;;;;;;4971957;28;20986;-67
2024/02/03 04:29:47;;;;;;;3.50;2.10;;;3.40;98.00;;;;;;4972001;28;20471;-67
2024/02/03 04:32:16;;;;;;;2.87;2.17;;;3.20;98.00;;;;;;4971815;28;20459;-68
2024/02/03 04:34:43;;;;;;;3.90;2.10;;;3.10;98.00;;;;;;4971494;28;20461;-66
2024/02/03 04:37:12;;;;;;;3.00;1.83;;;3.10;98.00;;;;;;4971618;28;20493;-67
2024/02/03 04:39:42;;;;;;;3.90;1.90;;;3.20;98.00;;;;;;4974263;28;20455;-67
2024/02/03 04:42:09;;;;;;;4.27;2.33;;;3.20;98.00;;;;;;4975731;28;20462;-67
2024/02/03 04:44:36;;;;;;;3.20;2.20;;;3.00;98.00;;;;;;4974815;28;20448;-66
2024/02/03 04:47:03;;;;;;;4.20;2.33;;;3.00;98.00;;;;;;4975722;28;20457;-67
2024/02/03 04:49:30;;;;;;;2.93;2.03;;;3.00;98.00;;;;;;4975097;28;20463;-67
2024/02/03 04:51:58;;;;;;;6.13;2.10;;;3.10;98.00;;;;;;4975433;28;20456;-67
2024/02/03 04:54:26;;;;;;;2.97;2.20;;;3.20;98.00;;;;;;4975199;28;20467;-67
2024/02/03 04:56:54;;;;;;;5.50;2.13;;;3.30;98.00;;;;;;4975074;28;20468;-68
2024/02/03 04:59:21;;;;;;;3.53;2.10;;;3.10;98.00;;;;;;4975248;28;20470;-68
2024/02/03 05:01:48;;;;;;;4.60;2.30;;;3.10;98.00;;;;;;4975119;28;20477;-67
2024/02/03 05:04:15;;;;;;;2.80;1.90;;;3.10;98.00;;;;;;4974823;28;20455;-67
2024/02/03 05:06:42;;;;;;;2.97;2.20;;;3.20;98.00;;;;;;4974825;28;20465;-68
2024/02/03 05:09:09;;;;;;;3.43;2.10;;;3.20;98.00;;;;;;4974857;28;20459;-68
2024/02/03 05:11:37;;;;;;;3.70;2.30;;;3.00;98.00;;;;;;4974892;28;20467;-67
2024/02/03 05:14:05;;;;;;;5.20;2.20;;;3.10;98.00;;;;;;4975051;28;20461;-67
2024/02/03 05:16:32;;;;;;;3.93;2.50;;;3.20;98.00;;;;;;4974771;28;20872;-67
2024/02/03 05:19:01;;;;;;;5.30;2.77;;;3.20;98.00;;;;;;4974150;28;20487;-67
2024/02/03 05:21:30;;;;;;;3.93;2.50;;;3.20;98.00;;;;;;4974937;28;20458;-67
2024/02/03 05:23:57;;;;;;;3.13;2.30;;;3.30;98.00;;;;;;4974605;28;20558;-67
2024/02/03 05:26:24;;;;;;;6.70;3.00;;;3.40;98.00;;;;;;4974681;28;20465;-66
2024/02/03 05:28:51;;;;;;;4.67;2.60;;;3.40;98.00;;;;;;4974840;28;20462;-67
2024/02/03 05:31:22;;;;;;;4.90;2.90;;;3.40;98.00;;;;;;4975076;28;20467;-67
2024/02/03 05:33:49;;;;;;;4.77;2.70;;;3.30;98.00;;;;;;4974780;28;20473;-67
2024/02/03 05:36:16;;;;;;;6.03;2.80;;;3.30;98.00;;;;;;4974565;28;20459;-67
2024/02/03 05:38:43;;;;;;;4.57;3.03;;;3.20;98.00;;;;;;4974469;28;20484;-67
2024/02/03 05:41:11;;;;;;;5.83;3.13;;;3.00;98.00;;;;;;4974850;28;20447;-67
2024/02/03 05:43:38;;;;;;;8.93;3.53;;;3.10;98.00;;;;;;4974330;28;20467;-67
2024/02/03 05:46:05;;;;;;;5.20;3.17;;;3.10;98.00;;;;;;4973091;28;20495;-66
2024/02/03 05:48:34;;;;;;;8.80;3.40;;;3.00;98.00;;;;;;4974192;28;20456;-67
2024/02/03 05:51:01;;;;;;;7.47;3.50;;;3.00;98.00;;;;;;4973285;28;20483;-67
2024/02/03 05:53:34;;;;;;;7.07;3.30;;;2.80;98.00;;;;;;4974195;28;20502;-67
2024/02/03 05:56:01;;;;;;;6.20;3.50;;;2.90;98.00;;;;;;4974178;28;20815;-67
2024/02/03 05:58:32;;;;;;;6.33;3.37;;;2.90;98.00;;;;;;4973777;28;20491;-67
2024/02/03 06:00:59;;;;;;;5.67;2.80;;;2.90;98.00;;;;;;4974157;28;20453;-67
2024/02/03 06:03:26;;;;;;;8.17;3.50;;;2.90;98.00;;;;;;4973840;28;20474;-67
2024/02/03 06:05:55;;;;;;;7.87;3.70;;;2.80;98.00;;;;;;4973878;28;20478;-67
2024/02/03 06:08:22;;;;;;;6.80;3.10;;;2.70;98.00;;;;;;4973750;28;20544;-67
2024/02/03 06:10:49;;;;;;;5.37;3.33;;;2.90;98.00;;;;;;4973650;28;20447;-67
2024/02/03 06:13:16;;;;;;;9.10;3.70;;;2.90;98.00;;;;;;4973868;28;20458;-67
2024/02/03 06:15:43;;;;;;;12.70;3.50;;;3.00;98.00;;;;;;4973633;28;20456;-67
2024/02/03 06:18:10;;;;;;;6.73;3.70;;;3.10;98.00;;;;;;4972865;28;20489;-66
2024/02/03 06:20:37;;;;;;;7.10;3.60;;;3.20;98.00;;;;;;4973142;28;20447;-67
2024/02/03 06:23:06;;;;;;;9.90;3.80;;;3.30;98.00;;;;;;4972572;28;20463;-67
2024/02/03 06:25:33;;;;;;;7.50;4.23;;;3.40;98.00;;;;;;4973545;28;20464;-67
2024/02/03 06:28:00;;;;;;;7.20;3.70;;;3.50;98.00;;;;;;4973025;28;20463;-66
2024/02/03 06:30:28;;;;;;;8.13;3.80;;;3.80;98.00;;;;;;4973560;28;20456;-67
2024/02/03 06:32:55;;;;;;;7.90;3.53;;;3.90;98.00;;;;;;4973039;28;20620;-68
2024/02/03 06:35:22;;;;;;;7.17;3.53;;;3.90;98.00;;;;;;4972859;28;20445;-67
2024/02/03 06:37:49;;;;;;;8.90;3.83;;;3.80;98.00;;;;;;4972989;28;20488;-67
2024/02/03 06:40:17;;;;;;;8.83;4.37;;;3.80;98.00;;;;;;4973380;28;20460;-67
2024/02/03 06:42:44;;;;;;;7.57;4.07;;;3.90;98.00;;;;;;4973167;28;20473;-67
2024/02/03 06:45:12;;;;;;;8.70;3.53;;;4.00;98.00;;;;;;4973394;28;20962;-67
2024/02/03 06:47:40;;;;;;;9.23;4.40;;;4.10;98.00;;;;;;4972271;28;20459;-66
2024/02/03 06:50:09;;;;;;;9.33;4.47;;;4.20;98.00;;;;;;4972709;28;20460;-66
2024/02/03 06:52:36;;;;;;;9.97;4.70;;;4.20;98.00;;;;;;4972958;28;20464;-66
2024/02/03 06:55:03;;;;;;;9.73;4.60;;;4.30;98.00;;;;;;4973202;28;20472;-67
2024/02/03 06:57:32;;;;;;;8.00;4.50;;;4.30;98.00;;;;;;4972973;28;20476;-67
2024/02/03 06:59:59;;;;;;;11.00;4.70;;;4.30;98.00;;;;;;4973249;28;20800;-74
2024/02/03 07:02:26;;;;;;;10.70;4.70;;;4.50;98.00;;;;;;4972842;28;20455;-74
2024/02/03 07:04:53;;;;;;;9.00;4.30;;;4.70;98.00;;;;;;4972465;28;20469;-74
2024/02/03 07:07:20;;;;;;;9.93;4.27;;;4.80;98.00;;;;;;4973040;28;20478;-74
2024/02/03 07:09:49;;;;;;;8.80;4.70;;;4.90;98.00;;;;;;4972430;28;20464;-74
2024/02/03 07:12:16;;;;;;;10.83;4.90;;;5.00;98.00;;;;;;4972848;28;20459;-74
2024/02/03 07:14:45;;;;;;;9.37;4.60;;;5.20;98.00;;;;;;4972860;28;20457;-74
2024/02/03 07:17:12;;;;;;;10.37;4.70;;;5.20;98.00;;;;;;4971951;28;20477;-73
2024/02/03 07:19:41;;;;;;;9.17;4.83;;;5.10;98.00;;;;;;4972311;28;20525;-73
2024/02/03 07:22:08;;;;;;;14.33;6.53;;;5.10;98.00;;;;;;4971339;28;20458;-73
2024/02/03 07:24:38;;;;;;;8.97;4.57;;;5.20;98.00;;;;;;4972604;28;20459;-73
2024/02/03 07:27:06;;;;;;;9.40;4.40;;;5.20;98.00;;;;;;4972600;28;20964;-73
2024/02/03 07:29:33;;;;;;;13.40;4.70;;;5.40;98.00;;;;;;4972738;28;20554;-73
2024/02/03 07:32:07;;;;;;;11.60;4.70;;;5.60;98.00;;;;;;4972864;28;20616;-73
2024/02/03 07:34:34;;;;;;;8.33;4.50;;;5.60;98.00;;;;;;4972658;28;20461;-73
2024/02/03 07:37:02;;;;;;;7.73;4.30;;;5.70;98.00;;;;;;4973839;28;20465;-73
2024/02/03 07:39:29;;;;;;;10.77;4.77;;;5.70;98.00;;;;;;4972072;28;20495;-73
2024/02/03 07:41:56;;;;;;;11.53;5.20;;;5.70;98.00;;;;;;4973589;28;20463;-73
2024/02/03 07:44:23;;;;;;;8.53;4.47;;;5.70;98.00;;;;;;4972681;28;20470;-73
2024/02/03 07:46:50;;;;;;;11.10;5.57;;;5.70;98.00;;;;;;4972497;28;20470;-73
2024/02/03 07:49:19;;;;;;;10.93;4.90;;;5.70;98.00;;;;;;4972473;28;20460;-73
2024/02/03 07:51:46;;;;;;;11.30;4.93;;;5.80;98.00;;;;;;4972488;28;20459;-73
2024/02/03 07:54:13;;;;;;;11.53;5.17;;;5.90;98.00;;;;;;4972356;28;20473;-73
2024/02/03 07:56:40;;;;;;;11.93;5.97;;;5.90;98.00;;;;;;4972552;28;20812;-73
2024/02/03 07:59:07;;;;;;;12.20;5.57;;;6.00;98.00;;;;;;4972278;28;20500;-73
2024/02/03 08:01:34;;;;;;;10.70;5.40;;;6.10;98.00;;;;;;4972769;28;20460;-73
2024/02/03 08:04:02;;;;;;;10.30;5.63;;;6.20;98.00;;;;;;4972329;28;20959;-73
2024/02/03 08:06:31;;;;;;;14.90;6.07;;;6.30;98.00;;;;;;4971783;28;20473;-73
2024/02/03 08:08:59;;;;;;;11.27;5.00;;;6.30;98.00;;;;;;4972189;28;20457;-73
2024/02/03 08:11:26;;;;;;;11.73;5.50;;;6.40;98.00;;;;;;4972096;28;20955;-73
2024/02/03 08:13:53;;;;;;;16.43;6.57;;;6.40;98.00;;;;;;4973881;28;20789;-73
2024/02/03 08:16:20;;;;;;;12.20;5.90;;;6.50;98.00;;;;;;4975988;28;20465;-73
2024/02/03 08:18:48;;;;;;;12.83;5.60;;;6.60;98.00;;;;;;4976020;28;20490;-72
2024/02/03 08:21:15;;;;;;;15.90;6.40;;;6.70;98.00;;;;;;4975810;28;20465;-72
2024/02/03 08:23:43;;;;;;;13.23;6.10;;;6.70;98.00;;;;;;4976105;28;20463;-73
2024/02/03 08:26:12;;;;;;;13.50;6.20;;;6.70;98.00;;;;;;4975686;28;20449;-73
2024/02/03 08:28:39;;;;;;;12.90;5.77;;;6.80;98.00;;;;;;4975582;28;20525;-73
2024/02/03 08:31:06;;;;;;;13.53;6.20;;;6.80;98.00;;;;;;4976048;28;20474;-73
2024/02/03 08:33:33;;;;;;;13.27;6.40;;;6.80;98.00;;;;;;4975625;28;20471;-73
2024/02/03 08:36:00;;;;;;;12.80;5.83;;;7.00;98.00;;;;;;4975733;28;20455;-73
2024/02/03 08:38:27;;;;;;;15.07;6.60;;;7.10;98.00;;;;;;4975357;28;20488;-73
2024/02/03 08:40:56;;;;;;;20.30;6.47;;;7.30;98.00;;;;;;4975751;28;20468;-72
2024/02/03 08:43:23;;;;;;;14.60;6.40;;;7.40;98.00;;;;;;4974925;28;20464;-73
2024/02/03 08:45:50;;;;;;;15.17;6.33;;;7.40;98.00;;;;;;4974426;28;20462;-73
2024/02/03 08:48:17;;;;;;;17.60;6.90;;;7.50;98.00;;;;;;4975367;28;20470;-73
2024/02/03 08:50:44;;;;;;;16.13;7.20;;;7.40;98.00;;;;;;4974302;28;20466;-73
2024/02/03 08:53:12;;;;;;;19.10;6.93;;;7.60;98.00;;;;;;4975511;28;20455;-73
2024/02/03 08:55:40;;;;;;;20.50;7.70;;;7.60;98.00;;;;;;4975472;28;20538;-73
2024/02/03 08:58:08;;;;;;;13.77;6.53;;;7.70;98.00;;;;;;4974780;28;20456;-73
2024/02/03 09:00:36;;;;;;;13.50;6.13;;;7.80;98.00;;;;;;4975236;28;20456;-73
2024/02/03 09:03:03;;;;;;;16.50;6.53;;;7.80;98.00;;;;;;4975337;28;20988;-72
2024/02/03 09:05:30;;;;;;;12.97;6.27;;;7.80;98.00;;;;;;4975309;28;20464;-72
2024/02/03 09:07:57;;;;;;;14.43;6.87;;;7.90;98.00;;;;;;4975358;28;20827;-72
2024/02/03 09:10:24;;;;;;;11.10;5.63;;;7.90;98.00;;;;;;4975572;28;20460;-73
2024/02/03 09:12:52;;;;;;;12.40;6.13;;;7.90;98.00;;;;;;4974221;28;20464;-72
2024/02/03 09:15:22;;;;;;;10.40;5.53;;;7.80;98.00;;;;;;4975519;28;20966;-73
2024/02/03 09:17:57;;;;;;;12.93;6.10;;;7.80;98.00;;;;;;4975851;28;20458;-72
2024/02/03 09:20:24;;;;;;;13.50;6.10;;;7.70;98.00;;;;;;4975804;28;20494;-71
2024/02/03 09:22:51;;;;;;;12.50;5.43;;;7.60;98.00;;;;;;4975523;28;20462;-70
2024/02/03 09:25:18;;;;;;;10.03;5.17;;;7.60;98.00;;;;;;4972730;28;20455;-70
2024/02/03 09:27:46;;;;;;;11.80;5.60;;;7.50;98.00;;;;;;4973720;28;20451;-70
2024/02/03 09:30:14;;;;;;;10.00;4.90;;;7.50;98.00;;;;;;4973496;28;20980;-70
2024/02/03 09:32:42;;;;;;;12.97;4.90;;;7.60;98.00;;;;;;4974499;28;20468;-70
2024/02/03 09:35:09;;;;;;;9.33;4.77;;;7.70;98.00;;;;;;4974604;28;20452;-70
2024/02/03 09:37:37;;;;;;;11.83;5.10;;;7.70;98.00;;;;;;4979245;28;20468;-70
2024/02/03 09:40:07;;;;;;;10.00;4.50;;;7.70;98.00;;;;;;4993481;28;20495;-70
2024/02/03 09:42:37;;;;;;;6.10;3.57;;;7.70;98.00;;;;;;4994253;28;20466;-70
2024/02/03 09:45:05;;;;;;;7.93;4.07;;;7.70;98.00;;;;;;4992688;28;20486;-70
2024/02/03 09:47:32;;;;;;;10.67;4.17;;;7.70;98.00;;;;;;4992295;28;20456;-70
2024/02/03 09:50:02;;;;;;;6.43;3.43;;;7.80;98.00;;;;;;4993566;28;20455;-70
2024/02/03 09:52:31;;;;;;;6.87;3.80;;;7.60;98.00;;;;;;4993895;28;20559;-70
2024/02/03 09:54:58;;;;;;;9.47;3.93;;;7.60;98.00;;;;;;4993115;28;20466;-70
2024/02/03 09:57:25;;;;;;;8.30;4.00;;;7.60;98.00;;;;;;4993430;28;20457;-70
2024/02/03 09:59:54;;;;;;;8.03;3.90;;;7.70;98.00;;;;;;4993442;28;20488;-70
2024/02/03 10:02:21;;;;;;;6.40;3.57;;;7.60;98.00;;;;;;4993483;28;20471;-70
2024/02/03 10:04:49;;;;;;;8.43;4.07;;;7.60;98.00;;;;;;4993335;28;20488;-70
2024/02/03 10:07:20;;;;;;;6.80;3.73;;;7.60;98.00;;;;;;4991660;28;20457;-71
2024/02/03 10:09:48;;;;;;;5.73;3.60;;;7.70;98.00;;;;;;4993562;28;20466;-71
2024/02/03 10:12:18;;;;;;;7.23;3.70;;;7.70;98.00;;;;;;4993549;28;20463;-70
2024/02/03 10:14:45;;;;;;;5.77;3.67;;;7.70;98.00;;;;;;4993297;28;20523;-70
2024/02/03 10:17:20;;;;;;;7.90;4.17;;;7.60;98.00;;;;;;4993120;28;20464;-70
2024/02/03 10:19:47;;;;;;;8.00;4.17;;;7.60;98.00;;;;;;4993148;28;20489;-70
2024/02/03 10:22:15;;;;;;;7.73;3.20;;;7.70;98.00;;;;;;4993199;28;20974;-70
2024/02/03 10:24:43;;;;;;;5.63;3.27;;;7.60;98.00;;;;;;4993337;28;20806;-70
2024/02/03 10:27:10;;;;;;;8.47;3.50;;;7.60;98.00;;;;;;4992738;28;20462;-70
2024/02/03 10:29:38;;;;;;;6.53;3.57;;;7.60;98.00;;;;;;4993171;28;20824;-70
2024/02/03 10:32:07;;;;;;;5.80;3.07;;;7.60;98.00;;;;;;4991745;28;20459;-70
2024/02/03 10:34:35;;;;;;;5.70;3.30;;;7.80;98.00;;;;;;5002834;28;20523;-70
2024/02/03 10:37:02;;;;;;;9.10;3.73;;;7.80;98.00;;;;;;5002320;28;20570;-70
2024/02/03 10:39:29;;;;;;;6.57;3.10;;;7.80;98.00;;;;;;5001185;28;20484;-71
2024/02/03 10:42:00;;;;;;;5.27;3.23;;;7.80;98.00;;;;;;4993114;28;20465;-70
2024/02/03 10:44:32;;;;;;;9.63;4.17;;;7.80;98.00;;;;;;4993461;28;20459;-70
2024/02/03 10:47:02;;;;;;;6.97;3.53;;;7.80;98.00;;;;;;4993537;28;20462;-70
2024/02/03 10:49:33;;;;;;;6.47;3.50;;;7.90;98.00;;;;;;4993365;28;20455;-70
2024/02/03 10:52:03;;;;;;;7.40;3.77;;;7.90;98.00;;;;;;4993270;28;20478;-70
2024/02/03 10:54:32;;;;;;;6.00;3.60;;;8.00;98.00;;;;;;4993169;28;20486;-70
2024/02/03 10:57:03;;;;;;;8.53;4.47;;;8.30;98.00;;;;;;4993394;28;20984;-70
2024/02/03 10:59:30;;;;;;;8.73;3.67;;;8.40;98.00;;;;;;4992687;28;20494;-70
2024/02/03 11:01:58;;;;;;;8.47;4.20;;;8.30;98.00;;;;;;4991628;28;20465;-70
2024/02/03 11:04:25;;;;;;;5.83;3.53;;;8.50;98.00;;;;;;4992982;28;20464;-70
2024/02/03 11:06:52;;;;;;;6.30;3.67;;;8.60;98.00;;;;;;4992724;28;20467;-70
2024/02/03 11:09:22;;;;;;;5.30;3.30;;;8.70;98.00;;;;;;4992502;28;20452;-70
2024/02/03 11:11:52;;;;;;;7.90;3.90;;;8.70;98.00;;;;;;4992027;28;20519;-71
2024/02/03 11:14:22;;;;;;;6.37;3.63;;;8.70;98.00;;;;;;4992874;28;20548;-70
2024/02/03 11:16:55;;;;;;;7.40;4.00;;;8.70;98.00;;;;;;4992821;28;20899;-70
2024/02/03 11:19:31;;;;;;;7.30;4.10;;;8.70;98.00;;;;;;4991740;28;20497;-71
2024/02/03 11:21:59;;;;;;;6.40;3.20;;;8.70;98.00;;;;;;4991456;28;20467;-70
2024/02/03 11:24:27;;;;;;;8.13;3.87;;;8.80;98.00;;;;;;4992248;28;20457;-71
2024/02/03 11:27:02;;;;;;;7.63;3.50;;;8.80;98.00;;;;;;4992528;28;20459;-71
2024/02/03 11:29:32;;;;;;;8.73;3.90;;;8.70;98.00;;;;;;4992365;28;21015;-71
2024/02/03 11:31:59;;;;;;;6.10;3.60;;;8.70;98.00;;;;;;4992479;28;20468;-71
2024/02/03 11:34:28;;;;;;;7.40;4.00;;;8.70;98.00;;;;;;4992088;28;20470;-71
2024/02/03 11:36:57;;;;;;;5.03;3.40;;;8.70;98.00;;;;;;4992500;28;20464;-71
2024/02/03 11:39:28;;;;;;;8.57;4.03;;;8.90;98.00;;;;;;4992260;28;20495;-71
2024/02/03 11:41:55;;;;;;;6.20;3.30;;;9.00;98.00;;;;;;4992078;28;20453;-70
2024/02/03 11:44:22;;;;;;;9.53;4.03;;;9.00;98.00;;;;;;4991981;28;20955;-70
2024/02/03 11:46:51;;;;;;;8.47;4.17;;;9.10;98.00;;;;;;4992236;28;20633;-70
2024/02/03 11:49:18;;;;;;;8.50;3.97;;;9.00;98.00;;;;;;4991567;28;20466;-70
2024/02/03 11:51:45;;;;;;;6.60;3.83;;;9.00;98.00;;;;;;4992239;28;20456;-70
2024/02/03 11:54:13;;;;;;;6.77;3.50;;;9.10;98.00;;;;;;4992225;28;20464;-70
2024/02/03 11:56:42;;;;;;;6.10;3.53;;;9.10;98.00;;;;;;4991734;28;20834;-70
2024/02/03 11:59:11;;;;;;;6.10;3.30;;;9.10;98.00;;;;;;4991642;28;20463;-70
2024/02/03 12:01:40;;;;;;;7.33;3.87;;;9.10;98.00;;;;;;4991119;28;20848;-70
2024/02/03 12:04:08;;;;;;;5.63;2.90;;;9.10;98.00;;;;;;4992317;28;20545;-70
2024/02/03 12:06:36;;;;;;;5.93;3.50;;;9.10;98.00;;;;;;4992470;28;20484;-70
2024/02/03 12:09:03;;;;;;;6.17;3.53;;;9.10;98.00;;;;;;4992302;28;20487;-70
2024/02/03 12:11:31;;;;;;;6.33;3.80;;;9.10;98.00;;;;;;4992362;28;21109;-70
2024/02/03 12:13:58;;;;;;;6.80;3.50;;;9.10;98.00;;;;;;4991865;28;20477;-71
2024/02/03 12:16:26;;;;;;;8.13;3.47;;;9.20;98.00;;;;;;4991138;28;20809;-70
2024/02/03 12:18:54;;;;;;;7.60;3.60;;;9.30;98.00;;;;;;4990907;28;20448;-71
2024/02/03 12:21:30;;;;;;;5.60;3.30;;;9.40;98.00;;;;;;4992093;28;20500;-70
2024/02/03 12:23:58;;;;;;;5.90;3.67;;;9.40;98.00;;;;;;4992034;28;20940;-70
2024/02/03 12:26:25;;;;;;;4.40;2.87;;;9.40;98.00;;;;;;4992300;28;20461;-70
2024/02/03 12:28:52;;;;;;;8.57;3.43;;;9.50;98.00;;;;;;4992133;28;20464;-70
2024/02/03 12:31:19;;;;;;;6.33;3.27;;;9.50;98.00;;;;;;4992233;28;20471;-70
2024/02/03 12:33:46;;;;;;;5.33;3.37;;;9.50;98.00;;;;;;4992350;28;20445;-70
2024/02/03 12:36:14;;;;;;;6.23;3.40;;;9.50;98.00;;;;;;4992287;28;20457;-71
2024/02/03 12:38:42;;;;;;;5.47;3.23;;;9.60;98.00;;;;;;4992023;28;20874;-71
2024/02/03 12:41:10;;;;;;;4.87;3.20;;;9.60;98.00;;;;;;4991357;28;20496;-71
2024/02/03 12:43:38;;;;;;;6.47;3.43;;;9.60;98.00;;;;;;4991678;28;20468;-70
2024/02/03 12:46:05;;;;;;;9.27;4.17;;;9.60;98.00;;;;;;4991697;28;20479;-71
2024/02/03 12:48:32;;;;;;;6.43;3.53;;;9.60;98.00;;;;;;4991488;28;20452;-70
2024/02/03 12:51:00;;;;;;;7.30;3.50;;;9.60;98.00;;;;;;4992099;28;20461;-71
2024/02/03 12:53:29;;;;;;;6.33;3.50;;;9.70;98.00;;;;;;4991677;28;20482;-72
2024/02/03 12:55:57;;;;;;;6.43;3.23;;;9.80;98.00;;;;;;4991751;28;20958;-72
2024/02/03 12:58:26;;;;;;;6.00;3.53;;;9.80;98.00;;;;;;4991608;28;20456;-72